GOOK

Details ICAO GOOK (KLC)
Name KAOLACK
Region Senegal
Timezone Africa/Dakar (UTC+0.0)
Plans Departing 1
Arriving 2
Stats Elevation 26 ft / 8 m (AMSL)
Location 14.146879° -16.051295°
Runways 1
Magnetic Variation 6.827° W
Sunrise 2018-05-22 06:37:08 UTC / 2018-05-22 06:37:08 Local
Sunset 2018-05-22 19:27:29 UTC / 2018-05-22 19:27:29 Local
Advertisement - Login to hide

Runways

ID Width Length Bearing (true) Bearing (mag) Surface Threshold Offset Overrun Length
06 98 ft / 30 m 5,252 ft / 1,601 m 50.63° 57.46° Asphalt 0 ft / 0 m 197 ft / 60 m
24 98 ft / 30 m 5,252 ft / 1,601 m 230.63° 237.46° Asphalt 0 ft / 0 m 328 ft / 100 m

Map

Weather


0- 5 10 15 20 25 30 35+ Temperature / ° C

Clouds and Precipitation
Forecast for 2018-05-22 12:00 UTC. Updated 5 hours ago

Ground ~20,000 ft ~40,000 ft Winds

METAR

GOOK 221500Z 04006KT CAVOK 40/26 Q1010

TAF

Not found
Warning: Do not use this data for real-world aviation or navigation. No guarantee of current accuracy is given.